createdAt,value
2022-10-22T00:02:23.699Z,100426.05
2022-10-22T00:07:26.523Z,100418.95
2022-10-22T00:12:29.266Z,100408.70
2022-10-22T00:17:32.018Z,100420.71
2022-10-22T00:22:34.860Z,100415.04
2022-10-22T00:27:37.748Z,100409.80
2022-10-22T00:32:43.065Z,100409.02
2022-10-22T00:37:46.090Z,100403.45
2022-10-22T00:42:49.163Z,100395.43
2022-10-22T00:48:00.763Z,100383.29
2022-10-22T00:53:06.678Z,100371.07
2022-10-22T00:58:09.598Z,100364.35
2022-10-22T01:03:12.511Z,100370.08
2022-10-22T01:08:29.106Z,100360.52
2022-10-22T01:13:40.029Z,100362.83
2022-10-22T01:19:09.717Z,100358.78
2022-10-22T01:24:24.916Z,100357.38
2022-10-22T01:29:37.586Z,100356.10
2022-10-22T01:34:42.181Z,100344.89
2022-10-22T01:39:46.656Z,100337.02
2022-10-22T01:44:50.317Z,100332.19
2022-10-22T01:50:08.377Z,100335.35
2022-10-22T01:55:30.313Z,100341.39
2022-10-22T02:00:33.085Z,100346.17
2022-10-22T02:05:40.264Z,100344.21
2022-10-22T02:10:45.114Z,100339.98
2022-10-22T02:15:47.897Z,100328.19
2022-10-22T02:20:51.543Z,100329.09
2022-10-22T02:26:00.526Z,100327.97
2022-10-22T02:31:15.088Z,100328.52
2022-10-22T02:36:17.896Z,100325.48
2022-10-22T02:41:20.624Z,100322.67
2022-10-22T02:46:23.819Z,100321.82
2022-10-22T02:51:26.581Z,100323.56
2022-10-22T02:56:29.436Z,100315.45
2022-10-22T03:01:32.221Z,100317.06
2022-10-22T03:06:35.200Z,100325.52
2022-10-22T03:11:39.168Z,100324.00
2022-10-22T03:16:41.930Z,100317.72
2022-10-22T03:21:49.878Z,100316.95
2022-10-22T03:26:53.104Z,100313.68
2022-10-22T03:31:55.951Z,100313.48
2022-10-22T03:36:59.657Z,100309.41
2022-10-22T03:42:02.422Z,100314.84
2022-10-22T03:47:05.354Z,100317.58
2022-10-22T03:52:10.715Z,100329.02
2022-10-22T03:57:13.614Z,100331.90
2022-10-22T04:02:16.393Z,100321.00
2022-10-22T04:07:19.164Z,100307.92
2022-10-22T04:12:21.881Z,100317.73
2022-10-22T04:17:24.909Z,100319.49
2022-10-22T04:22:27.646Z,100307.73
2022-10-22T04:27:32.084Z,100306.71
2022-10-22T04:32:34.830Z,100282.60
2022-10-22T04:37:38.092Z,100271.38
2022-10-22T04:42:42.323Z,100276.42
2022-10-22T04:47:45.196Z,100268.63
2022-10-22T04:52:48.024Z,100263.79
2022-10-22T04:57:50.800Z,100269.50
2022-10-22T05:02:53.538Z,100267.16
2022-10-22T05:07:56.626Z,100265.78
2022-10-22T05:12:59.365Z,100262.08
2022-10-22T05:18:02.197Z,100268.52
2022-10-22T05:23:05.453Z,100275.17
2022-10-22T05:28:10.569Z,100284.42
2022-10-22T05:33:13.310Z,100292.23
2022-10-22T05:38:16.886Z,100289.61
2022-10-22T05:43:19.643Z,100288.70
2022-10-22T05:48:22.691Z,100283.55
2022-10-22T05:53:25.506Z,100280.70
2022-10-22T05:58:28.318Z,100284.10
2022-10-22T06:03:31.979Z,100283.60
2022-10-22T06:08:34.778Z,100264.49
2022-10-22T06:13:38.596Z,100286.31
2022-10-22T06:18:41.574Z,100290.88
2022-10-22T06:23:44.392Z,100291.92
2022-10-22T06:28:47.590Z,100298.64
2022-10-22T06:33:51.837Z,100301.45
2022-10-22T06:38:55.444Z,100299.65
2022-10-22T06:43:58.453Z,100302.45
2022-10-22T06:49:03.248Z,100313.77
2022-10-22T06:54:06.317Z,100304.88
2022-10-22T06:59:09.051Z,100292.77
2022-10-22T07:04:11.890Z,100306.48
2022-10-22T07:09:14.782Z,100305.02
2022-10-22T07:14:17.746Z,100320.54
2022-10-22T07:19:20.541Z,100353.11
2022-10-22T07:24:23.705Z,100354.76
2022-10-22T07:29:26.591Z,100347.84
2022-10-22T07:34:29.497Z,100342.67
2022-10-22T07:39:33.733Z,100322.35
2022-10-22T07:44:36.586Z,100314.32
2022-10-22T07:49:39.402Z,100321.00
2022-10-22T07:54:42.145Z,100324.05
2022-10-22T07:59:44.902Z,100332.11
2022-10-22T08:04:47.685Z,100341.44
2022-10-22T08:09:50.491Z,100339.91
2022-10-22T08:14:53.457Z,100341.89
2022-10-22T08:19:56.210Z,100352.61
2022-10-22T08:25:00.501Z,100356.50
2022-10-22T08:30:05.253Z,100360.54
2022-10-22T08:35:08.172Z,100366.60
2022-10-22T08:40:21.131Z,100359.27
2022-10-22T08:46:08.622Z,100351.80
2022-10-22T08:51:18.612Z,100343.13
2022-10-22T08:56:22.605Z,100348.77
2022-10-22T09:01:47.069Z,100350.46
2022-10-22T09:06:53.638Z,100357.48
2022-10-22T09:12:00.198Z,100367.05
2022-10-22T09:17:22.022Z,100369.34
2022-10-22T09:23:05.493Z,100367.19
2022-10-22T09:28:09.892Z,100375.06
2022-10-22T09:33:19.177Z,100365.17
2022-10-22T09:38:30.376Z,100356.68
2022-10-22T09:43:33.438Z,100349.66
2022-10-22T09:48:41.069Z,100353.76
2022-10-22T09:53:46.626Z,100345.95
2022-10-22T09:58:51.293Z,100345.67
2022-10-22T10:03:54.142Z,100341.73
2022-10-22T10:08:57.336Z,100346.07
2022-10-22T10:14:34.666Z,100352.58
2022-10-22T10:20:27.931Z,100360.02
2022-10-22T10:26:18.337Z,100358.40
2022-10-22T10:32:24.373Z,100363.10
2022-10-22T10:37:53.778Z,100368.48
2022-10-22T10:43:32.459Z,100366.89
2022-10-22T10:48:50.263Z,100362.92
2022-10-22T10:54:20.229Z,100373.41
2022-10-22T10:59:50.366Z,100380.60
2022-10-22T11:05:24.009Z,100383.14
2022-10-22T11:10:44.301Z,100379.01
2022-10-22T11:16:30.337Z,100372.89
2022-10-22T11:22:05.064Z,100363.36
2022-10-22T11:27:40.055Z,100340.83
2022-10-22T11:32:51.898Z,100338.65
2022-10-22T11:37:55.938Z,100335.86
2022-10-22T11:43:09.276Z,100337.58
2022-10-22T11:48:17.339Z,100341.65
2022-10-22T11:53:40.649Z,100339.86
2022-10-22T11:58:50.795Z,100338.91
2022-10-22T12:03:59.702Z,100332.13
2022-10-22T12:09:04.899Z,100326.25
2022-10-22T12:14:53.770Z,100321.30
2022-10-22T12:20:12.016Z,100319.75
2022-10-22T12:25:22.198Z,100312.83
2022-10-22T12:30:30.580Z,100312.36
2022-10-22T12:35:44.017Z,100309.35
2022-10-22T12:40:48.767Z,100310.47
2022-10-22T12:45:53.578Z,100313.02
2022-10-22T12:50:59.388Z,100312.13
2022-10-22T12:56:08.272Z,100311.91
2022-10-22T13:01:13.561Z,100307.48
2022-10-22T13:06:19.980Z,100306.48
2022-10-22T13:11:24.093Z,100308.41
2022-10-22T13:16:28.046Z,100319.98
2022-10-22T13:21:38.126Z,100318.48
2022-10-22T13:26:40.915Z,100323.94
2022-10-22T13:31:48.926Z,100332.23
2022-10-22T13:36:51.736Z,100325.93
2022-10-22T13:41:54.795Z,100323.99
2022-10-22T13:46:57.553Z,100320.70
2022-10-22T13:52:01.175Z,100319.83
2022-10-22T13:57:09.283Z,100318.59
2022-10-22T14:02:12.273Z,100305.36
2022-10-22T14:07:16.549Z,100308.45
2022-10-22T14:12:19.315Z,100306.80
2022-10-22T14:17:22.037Z,100298.98
2022-10-22T14:22:24.850Z,100300.05
2022-10-22T14:27:27.576Z,100294.41
2022-10-22T14:32:30.623Z,100298.17
2022-10-22T14:37:33.653Z,100295.10
2022-10-22T14:42:41.732Z,100295.87
2022-10-22T14:47:44.902Z,100297.55
2022-10-22T14:52:48.549Z,100293.91
2022-10-22T14:57:51.388Z,100300.66
2022-10-22T15:02:55.927Z,100303.29
2022-10-22T15:07:59.513Z,100302.53
2022-10-22T15:13:02.283Z,100303.09
2022-10-22T15:18:05.326Z,100307.11
2022-10-22T15:23:08.128Z,100307.00
2022-10-22T15:28:10.917Z,100310.83
2022-10-22T15:33:14.889Z,100316.30
2022-10-22T15:38:18.003Z,100317.33
2022-10-22T15:43:20.792Z,100316.57
2022-10-22T15:48:23.663Z,100320.65
2022-10-22T15:53:26.404Z,100320.20
2022-10-22T15:58:29.359Z,100323.71
2022-10-22T16:08:39.939Z,100330.26
2022-10-22T16:13:42.685Z,100330.19
2022-10-22T16:18:45.469Z,100338.84
2022-10-22T16:23:48.311Z,100339.81
2022-10-22T16:28:52.326Z,100340.36
2022-10-22T16:33:55.497Z,100347.71
2022-10-22T16:38:58.566Z,100352.10
2022-10-22T16:44:03.636Z,100352.98
2022-10-22T16:49:06.900Z,100355.42
2022-10-22T16:54:12.471Z,100355.59
2022-10-22T16:59:15.509Z,100355.52
2022-10-22T17:04:18.294Z,100357.17
2022-10-22T17:09:21.555Z,100355.39
2022-10-22T17:14:24.380Z,100355.70
2022-10-22T17:19:27.457Z,100357.80
2022-10-22T17:24:30.208Z,100356.42
2022-10-22T17:29:33.102Z,100361.46
2022-10-22T17:34:35.861Z,100357.95
2022-10-22T17:39:38.799Z,100356.24
2022-10-22T17:44:42.283Z,100360.86
2022-10-22T17:49:45.024Z,100362.54
2022-10-22T17:54:48.702Z,100359.83
2022-10-22T17:59:51.420Z,100361.38
2022-10-22T18:04:54.282Z,100366.01
2022-10-22T18:09:57.428Z,100367.21
2022-10-22T18:15:00.197Z,100365.20
2022-10-22T18:20:03.205Z,100367.48
2022-10-22T18:25:06.635Z,100369.30
2022-10-22T18:30:10.191Z,100367.54
2022-10-22T18:35:15.517Z,100365.99
2022-10-22T18:40:18.266Z,100365.85
2022-10-22T18:45:20.977Z,100366.54
2022-10-22T18:50:23.858Z,100364.98
2022-10-22T18:55:26.863Z,100366.39
2022-10-22T19:00:30.514Z,100369.88
2022-10-22T19:05:33.284Z,100369.66
2022-10-22T19:10:36.048Z,100377.48
2022-10-22T19:15:39.165Z,100381.16
2022-10-22T19:20:41.950Z,100383.20
2022-10-22T19:25:46.476Z,100386.16
2022-10-22T19:30:49.442Z,100386.87
2022-10-22T19:35:52.216Z,100390.30
2022-10-22T19:40:55.017Z,100391.15
2022-10-22T19:45:57.772Z,100395.05
2022-10-22T19:51:03.120Z,100402.95
2022-10-22T19:56:07.666Z,100410.05
2022-10-22T20:01:13.280Z,100411.20
2022-10-22T20:06:17.227Z,100421.13
2022-10-22T20:11:23.222Z,100424.73
2022-10-22T20:16:30.697Z,100431.70
2022-10-22T20:21:34.984Z,100438.32
2022-10-22T20:26:37.860Z,100439.33
2022-10-22T20:31:40.758Z,100445.73
2022-10-22T20:36:43.499Z,100447.02
2022-10-22T20:41:46.213Z,100450.04
2022-10-22T20:46:49.024Z,100451.52
2022-10-22T20:51:51.802Z,100458.75
2022-10-22T20:56:54.551Z,100460.83
2022-10-22T21:01:57.300Z,100461.95
2022-10-22T21:07:00.032Z,100463.40
2022-10-22T21:12:03.729Z,100463.92
2022-10-22T21:17:08.189Z,100463.91
2022-10-22T21:22:10.962Z,100456.43
2022-10-22T21:27:13.692Z,100458.83
2022-10-22T21:32:16.428Z,100464.11
2022-10-22T21:37:19.426Z,100465.92
2022-10-22T21:42:22.178Z,100470.10
2022-10-22T21:47:25.006Z,100470.06
2022-10-22T21:52:27.907Z,100466.64
2022-10-22T21:57:30.710Z,100467.37
2022-10-22T22:02:33.483Z,100469.33
2022-10-22T22:07:36.277Z,100473.10
2022-10-22T22:12:39.204Z,100476.64
2022-10-22T22:17:42.146Z,100481.27
2022-10-22T22:22:44.939Z,100483.27
2022-10-22T22:27:47.698Z,100488.88
2022-10-22T22:32:50.463Z,100492.48
2022-10-22T22:37:53.190Z,100497.41
2022-10-22T22:42:56.007Z,100505.61
2022-10-22T22:47:58.705Z,100504.99
2022-10-22T22:53:01.520Z,100509.48
2022-10-22T22:58:04.309Z,100512.12
2022-10-22T23:03:07.061Z,100515.66
2022-10-22T23:08:09.897Z,100519.95
2022-10-22T23:13:12.678Z,100530.31
2022-10-22T23:18:15.435Z,100533.27
2022-10-22T23:23:19.998Z,100532.43
2022-10-22T23:28:24.179Z,100535.93
2022-10-22T23:33:26.940Z,100543.52
2022-10-22T23:38:29.681Z,100545.46
2022-10-22T23:43:36.066Z,100550.67
2022-10-22T23:48:39.487Z,100553.52
2022-10-22T23:53:43.029Z,100551.52
2022-10-22T23:58:48.276Z,100555.64
